createdAt,value
2017-10-16T17:40:01.796Z,19.95
2017-10-16T17:40:42.345Z,19.95
2017-10-16T17:41:22.875Z,20.03
2017-10-16T17:42:03.394Z,19.92
2017-10-16T17:42:45.317Z,20.06
2017-10-16T17:43:25.859Z,19.95
2017-10-16T17:44:06.423Z,19.88
2017-10-16T17:44:47.013Z,19.96
2017-10-16T17:45:27.500Z,19.99
2017-10-16T17:46:08.074Z,20.06
2017-10-16T17:46:48.792Z,19.95
2017-10-16T17:47:29.626Z,19.92
2017-10-16T17:48:09.995Z,20.08
2017-10-16T17:48:50.877Z,20.01
2017-10-16T17:49:32.023Z,19.92
2017-10-16T17:50:13.110Z,19.95
2017-10-16T17:50:55.310Z,19.94
2017-10-16T17:51:35.911Z,19.98
2017-10-16T17:52:16.485Z,19.92
2017-10-16T17:52:56.976Z,19.96
2017-10-16T17:53:37.559Z,19.95
2017-10-16T17:54:18.092Z,19.92
2017-10-16T17:54:58.661Z,19.92
2017-10-16T17:55:39.242Z,19.88
2017-10-16T17:56:19.797Z,19.92
2017-10-16T17:57:00.547Z,19.94
2017-10-16T17:57:41.044Z,19.95
2017-10-16T17:58:21.633Z,19.91
2017-10-16T17:59:02.217Z,19.98
2017-10-16T17:59:42.770Z,19.96
2017-10-16T18:00:23.307Z,19.98
2017-10-16T18:01:03.960Z,19.92
2017-10-16T18:01:44.565Z,19.96
2017-10-16T18:02:25.157Z,19.92
2017-10-16T18:03:06.635Z,19.94
2017-10-16T18:03:47.425Z,19.86
2017-10-16T18:04:27.967Z,19.84
2017-10-16T18:05:08.553Z,19.91
2017-10-16T18:05:49.041Z,19.84
2017-10-16T18:06:29.590Z,19.84
2017-10-16T18:07:10.267Z,19.83
2017-10-16T18:07:50.735Z,19.83
2017-10-16T18:08:31.343Z,19.83
2017-10-16T18:09:11.885Z,19.87
2017-10-16T18:09:52.394Z,19.87
2017-10-16T18:10:32.980Z,19.84
2017-10-16T18:11:13.538Z,19.87
2017-10-16T18:11:54.076Z,19.83
2017-10-16T18:12:34.591Z,19.84
2017-10-16T18:13:15.176Z,19.86
2017-10-16T18:13:55.679Z,19.87
2017-10-16T18:14:36.245Z,19.81
2017-10-16T18:15:16.786Z,19.86
2017-10-16T18:15:57.349Z,19.81
2017-10-16T18:16:37.918Z,19.87
2017-10-16T18:17:18.505Z,19.81
2017-10-16T18:17:59.023Z,19.88
2017-10-16T18:18:39.680Z,19.81
2017-10-16T18:19:20.257Z,19.84
2017-10-16T18:20:00.790Z,19.74
2017-10-16T18:20:41.348Z,19.73
2017-10-16T18:21:21.911Z,19.65
2017-10-16T18:22:02.655Z,19.77
2017-10-16T18:22:43.126Z,19.77
2017-10-16T18:23:23.720Z,19.8
2017-10-16T18:24:04.245Z,19.78
2017-10-16T18:24:44.895Z,19.78
2017-10-16T18:25:25.436Z,19.73
2017-10-16T18:26:06.013Z,19.77
2017-10-16T18:26:46.636Z,19.68
2017-10-16T18:27:27.123Z,19.69
2017-10-16T18:28:07.707Z,19.77
2017-10-16T18:28:48.229Z,19.73
2017-10-16T18:29:28.771Z,19.76
2017-10-16T18:30:09.355Z,19.73
2017-10-16T18:30:49.874Z,19.74
2017-10-16T18:31:30.472Z,19.66
2017-10-16T18:32:10.974Z,19.63
2017-10-16T18:32:51.521Z,19.63
2017-10-16T18:33:32.133Z,19.55
2017-10-16T18:34:12.672Z,19.59
2017-10-16T18:34:53.326Z,19.51
2017-10-16T18:35:33.925Z,19.59
2017-10-16T18:36:14.471Z,19.59
2017-10-16T18:36:55.011Z,19.62
2017-10-16T18:37:35.582Z,19.61
2017-10-16T18:38:16.269Z,19.58
2017-10-16T18:38:56.657Z,19.66
2017-10-16T18:39:37.194Z,19.59
2017-10-16T18:40:17.948Z,19.58
2017-10-16T18:40:58.484Z,19.68
2017-10-16T18:41:39.061Z,19.66
2017-10-16T18:42:19.595Z,19.56
2017-10-16T18:43:00.160Z,19.56
2017-10-16T18:43:40.805Z,19.62
2017-10-16T18:44:21.360Z,19.55
2017-10-16T18:45:01.908Z,19.54
2017-10-16T18:45:42.542Z,19.48
2017-10-16T18:46:23.233Z,19.47
2017-10-16T18:47:03.770Z,19.47
2017-10-16T18:47:44.558Z,19.33
2017-10-16T18:48:25.117Z,19.46
2017-10-16T18:49:05.785Z,19.46
2017-10-16T18:49:46.269Z,19.39
2017-10-16T18:50:26.795Z,19.39
2017-10-16T18:51:07.387Z,19.44
2017-10-16T18:51:47.941Z,19.51
2017-10-16T18:52:28.523Z,19.46
2017-10-16T18:53:09.104Z,19.39
2017-10-16T18:53:49.772Z,19.39
2017-10-16T18:54:30.232Z,19.46
2017-10-16T18:55:10.936Z,19.46
2017-10-16T18:55:51.474Z,19.39
2017-10-16T18:56:32.019Z,19.41
2017-10-16T18:57:12.640Z,19.31
2017-10-16T18:57:53.167Z,19.33
2017-10-16T18:58:33.725Z,19.32
2017-10-16T18:59:14.327Z,19.32
2017-10-16T18:59:54.842Z,19.4
2017-10-16T19:00:35.740Z,19.19
2017-10-16T19:01:16.381Z,19.36
2017-10-16T19:01:57.115Z,19.25
2017-10-16T19:02:37.688Z,19.23
2017-10-16T19:03:18.290Z,19.25
2017-10-16T19:03:59.342Z,19.26
2017-10-16T19:04:39.885Z,19.21
2017-10-16T19:05:20.452Z,19.29
2017-10-16T19:06:00.995Z,19.25
2017-10-16T19:06:41.647Z,19.23
2017-10-16T19:07:22.184Z,19.23
2017-10-16T19:08:02.703Z,19.19
2017-10-16T19:08:43.349Z,19.22
2017-10-16T19:09:24.258Z,19.31
2017-10-16T19:10:04.975Z,19.26
2017-10-16T19:10:45.534Z,19.22
2017-10-16T19:11:26.145Z,19.21
2017-10-16T19:12:06.760Z,19.28
2017-10-16T19:12:47.295Z,19.25
2017-10-16T19:13:27.801Z,19.23
2017-10-16T19:14:08.381Z,19.25
2017-10-16T19:14:49.003Z,19.22
2017-10-16T19:15:29.655Z,19.28
2017-10-16T19:16:10.218Z,19.25
2017-10-16T19:16:50.892Z,19.23
2017-10-16T19:17:31.412Z,19.16
2017-10-16T19:18:12.018Z,19.14
2017-10-16T19:18:52.594Z,19.13
2017-10-16T19:19:33.176Z,19.19
2017-10-16T19:20:14.075Z,19.18
2017-10-16T19:20:54.698Z,19.21
2017-10-16T19:21:35.257Z,19.19
2017-10-16T19:22:15.917Z,19.14
2017-10-16T19:22:56.486Z,19.14
2017-10-16T19:23:37.147Z,19.16
2017-10-16T19:24:17.590Z,19.14
2017-10-16T19:24:58.176Z,19.16
2017-10-16T19:25:38.823Z,19.16
2017-10-16T19:26:19.398Z,19.13
2017-10-16T19:26:59.982Z,19.21
2017-10-16T19:27:40.481Z,19.16
2017-10-16T19:28:21.076Z,19.19
2017-10-16T19:29:01.706Z,19.29
2017-10-16T19:29:42.358Z,19.25
2017-10-16T19:30:22.864Z,19.21
2017-10-16T19:31:03.494Z,19.21
2017-10-16T19:31:44.020Z,19.29
2017-10-16T19:32:24.610Z,19.16
2017-10-16T19:33:05.686Z,19.11
2017-10-16T19:33:47.639Z,19.22
2017-10-16T19:34:28.657Z,19.14
2017-10-16T19:35:08.668Z,19.14
2017-10-16T19:35:49.271Z,19.16
2017-10-16T19:36:31.279Z,19.11
2017-10-16T19:37:14.917Z,19.13
2017-10-16T19:37:55.585Z,19.22
2017-10-16T19:38:36.239Z,19.14
2017-10-16T19:39:16.997Z,19.11
2017-10-16T19:39:57.625Z,19.1
2017-10-16T19:40:38.169Z,19.11
2017-10-16T19:41:18.860Z,19.18
2017-10-16T19:41:59.576Z,19.1
2017-10-16T19:42:44.291Z,19.16
2017-10-16T19:43:24.870Z,19.11
2017-10-16T19:44:05.452Z,19.06
2017-10-16T19:44:45.922Z,19.13
2017-10-16T19:45:26.491Z,19.07
2017-10-16T19:46:07.146Z,19.11
2017-10-16T19:46:47.734Z,19.11
2017-10-16T19:47:28.344Z,19.07
2017-10-16T19:48:08.893Z,19.02
2017-10-16T19:48:49.459Z,19.08
2017-10-16T19:49:30.011Z,19.04
2017-10-16T19:50:10.630Z,19.02
2017-10-16T19:50:51.227Z,19.02
2017-10-16T19:51:31.808Z,19
2017-10-16T19:52:12.352Z,19.1
2017-10-16T19:52:52.973Z,19.04
2017-10-16T19:53:33.523Z,19
2017-10-16T19:54:14.239Z,19.08
2017-10-16T19:54:54.801Z,19.02
2017-10-16T19:55:35.359Z,19.02
2017-10-16T19:56:15.898Z,19.13
2017-10-16T19:56:56.489Z,19.04
2017-10-16T19:57:37.778Z,18.98
2017-10-16T19:58:18.361Z,18.98
2017-10-16T19:58:58.938Z,18.98
2017-10-16T19:59:39.550Z,18.95
2017-10-16T20:00:20.100Z,19.07
2017-10-16T20:01:00.653Z,19.04
2017-10-16T20:01:44.209Z,18.98
2017-10-16T20:02:24.760Z,18.92
2017-10-16T20:03:05.345Z,19
2017-10-16T20:03:45.886Z,19.06
2017-10-16T20:04:26.484Z,19.04
2017-10-16T20:05:07.018Z,18.95
2017-10-16T20:05:47.598Z,18.91
2017-10-16T20:06:28.200Z,18.95
2017-10-16T20:07:08.732Z,18.99
2017-10-16T20:07:49.295Z,19.04
2017-10-16T20:08:29.944Z,19
2017-10-16T20:09:10.438Z,19
2017-10-16T20:09:50.984Z,18.91
2017-10-16T20:10:32.108Z,18.95
2017-10-16T20:11:12.622Z,18.9
2017-10-16T20:11:53.247Z,18.95
2017-10-16T20:12:33.800Z,18.91
2017-10-16T20:13:14.398Z,18.98
2017-10-16T20:13:54.978Z,18.9
2017-10-16T20:14:35.523Z,18.99
2017-10-16T20:15:16.123Z,18.91
2017-10-16T20:15:56.643Z,18.91
2017-10-16T20:16:37.223Z,18.88
2017-10-16T20:17:17.802Z,18.82
2017-10-16T20:17:58.327Z,18.98
2017-10-16T20:18:39.547Z,18.88
2017-10-16T20:19:20.112Z,18.81
2017-10-16T20:20:00.805Z,18.82
2017-10-16T20:20:41.405Z,18.84
2017-10-16T20:21:22.012Z,18.84
2017-10-16T20:22:02.585Z,18.73
2017-10-16T20:22:43.106Z,18.72
2017-10-16T20:23:23.699Z,18.76
2017-10-16T20:24:04.950Z,18.69
2017-10-16T20:24:45.512Z,18.67
2017-10-16T20:25:26.112Z,18.75
2017-10-16T20:26:06.642Z,18.75
2017-10-16T20:26:47.173Z,18.76
2017-10-16T20:27:27.735Z,18.58
2017-10-16T20:28:08.347Z,18.65
2017-10-16T20:28:48.911Z,18.65
2017-10-16T20:29:29.523Z,18.73
2017-10-16T20:30:10.064Z,18.76
2017-10-16T20:30:50.631Z,18.78
2017-10-16T20:31:31.157Z,18.75
2017-10-16T20:32:11.737Z,18.8
2017-10-16T20:32:52.347Z,18.73
2017-10-16T20:33:33.027Z,18.75
2017-10-16T20:34:13.603Z,18.78
2017-10-16T20:34:54.157Z,18.69
2017-10-16T20:35:34.764Z,18.66
2017-10-16T20:36:15.281Z,18.72
2017-10-16T20:36:55.908Z,18.66
2017-10-16T20:37:36.534Z,18.7
2017-10-16T20:38:17.099Z,18.72
2017-10-16T20:38:57.688Z,18.62
2017-10-16T20:39:38.243Z,18.7
2017-10-16T20:40:18.792Z,18.73
2017-10-16T20:40:59.407Z,18.63
2017-10-16T20:41:39.939Z,18.67
2017-10-16T20:42:20.546Z,18.76
2017-10-16T20:43:01.111Z,18.72
2017-10-16T20:43:41.632Z,18.69
2017-10-16T20:44:22.247Z,18.7
2017-10-16T20:45:02.742Z,18.7
2017-10-16T20:45:43.406Z,18.73
2017-10-16T20:46:23.908Z,18.76
2017-10-16T20:47:04.466Z,18.67
2017-10-16T20:47:45.048Z,18.7
2017-10-16T20:48:25.557Z,18.67
2017-10-16T20:49:06.114Z,18.67
2017-10-16T20:49:46.692Z,18.6
2017-10-16T20:50:27.215Z,18.57
2017-10-16T20:51:07.837Z,18.63
2017-10-16T20:51:48.399Z,18.65
2017-10-16T20:52:29.025Z,18.58
2017-10-16T20:53:09.576Z,18.58
2017-10-16T20:53:50.081Z,18.65
2017-10-16T20:54:30.688Z,18.62
2017-10-16T20:55:11.255Z,18.52
2017-10-16T20:55:51.803Z,18.67
2017-10-16T20:56:32.397Z,18.66
2017-10-16T20:57:12.992Z,18.65
2017-10-16T20:57:53.568Z,18.62
2017-10-16T20:58:34.158Z,18.63
2017-10-16T20:59:14.651Z,18.62
2017-10-16T20:59:55.247Z,18.63
2017-10-16T21:00:35.817Z,18.63
2017-10-16T21:01:16.367Z,18.58
2017-10-16T21:01:57.007Z,18.62
2017-10-16T21:02:37.509Z,18.54
2017-10-16T21:03:18.355Z,18.47
2017-10-16T21:03:59.320Z,18.54
2017-10-16T21:04:40.227Z,18.57
2017-10-16T21:05:20.764Z,18.63
2017-10-16T21:06:01.298Z,18.63
2017-10-16T21:06:42.275Z,18.66
2017-10-16T21:07:23.743Z,18.63
2017-10-16T21:08:05.623Z,18.65
2017-10-16T21:08:46.054Z,18.54
2017-10-16T21:09:26.604Z,18.54
2017-10-16T21:10:07.957Z,18.57
2017-10-16T21:10:48.478Z,18.55
2017-10-16T21:11:29.109Z,18.52
2017-10-16T21:12:09.662Z,18.57
2017-10-16T21:12:50.175Z,18.51
2017-10-16T21:13:30.670Z,18.58
2017-10-16T21:14:11.382Z,18.54
2017-10-16T21:14:51.839Z,18.54
2017-10-16T21:15:32.810Z,18.55
2017-10-16T21:16:13.045Z,18.54
2017-10-16T21:16:53.711Z,18.48
2017-10-16T21:17:35.219Z,18.47
2017-10-16T21:18:15.444Z,18.5
2017-10-16T21:18:57.637Z,18.52
2017-10-16T21:19:52.940Z,18.52
2017-10-16T21:20:33.768Z,18.47
2017-10-16T21:21:14.830Z,18.41
2017-10-16T21:21:55.925Z,18.37
2017-10-16T21:22:36.348Z,18.54
2017-10-16T21:23:16.893Z,18.54
2017-10-16T21:23:57.388Z,18.57
2017-10-16T21:24:38.023Z,18.57
2017-10-16T21:25:18.543Z,18.37
2017-10-16T21:25:59.092Z,18.37
2017-10-16T21:26:39.769Z,18.45
2017-10-16T21:27:20.347Z,18.45
2017-10-16T21:28:00.899Z,18.45
2017-10-16T21:28:41.498Z,18.55
2017-10-16T21:29:22.125Z,18.47
2017-10-16T21:30:02.695Z,18.45
2017-10-16T21:30:43.270Z,18.48
2017-10-16T21:31:23.906Z,18.44
2017-10-16T21:32:04.416Z,18.44
2017-10-16T21:32:45.705Z,18.45
2017-10-16T21:33:26.506Z,18.36
2017-10-16T21:34:07.044Z,18.45
2017-10-16T21:34:47.556Z,18.36
2017-10-16T21:35:28.404Z,18.47
2017-10-16T21:36:08.942Z,18.45
2017-10-16T21:36:49.607Z,18.5
2017-10-16T21:37:30.135Z,18.45
2017-10-16T21:38:10.701Z,18.36
2017-10-16T21:38:51.235Z,18.3
2017-10-16T21:39:31.828Z,18.33
2017-10-16T21:40:12.380Z,18.32
2017-10-16T21:40:52.969Z,18.36
2017-10-16T21:41:33.526Z,18.35
2017-10-16T21:42:14.131Z,18.27
2017-10-16T21:42:54.677Z,18.3
2017-10-16T21:43:35.174Z,18.25
2017-10-16T21:44:15.735Z,18.3
2017-10-16T21:44:56.273Z,18.3
2017-10-16T21:45:36.871Z,18.27
2017-10-16T21:46:17.401Z,18.26
2017-10-16T21:46:58.010Z,18.25
2017-10-16T21:47:38.513Z,18.11
2017-10-16T21:48:19.265Z,18.18
2017-10-16T21:48:59.848Z,18.18
2017-10-16T21:49:40.436Z,18.21
2017-10-16T21:50:21.883Z,18.32
2017-10-16T21:51:01.564Z,18.25
2017-10-16T21:51:42.125Z,18.26
2017-10-16T21:52:22.836Z,18.25
2017-10-16T21:53:03.332Z,18.2
2017-10-16T21:53:44.141Z,18.12
2017-10-16T21:54:24.444Z,18.15
2017-10-16T21:55:05.040Z,18.14
2017-10-16T21:55:45.519Z,18.21
2017-10-16T21:56:26.358Z,18.17
2017-10-16T21:57:06.708Z,18.17
2017-10-16T21:57:47.279Z,18.18
2017-10-16T21:58:27.869Z,18.21
2017-10-16T21:59:08.434Z,18.14
2017-10-16T21:59:48.989Z,18.21
2017-10-16T22:00:29.622Z,18.12
2017-10-16T22:01:10.196Z,18.08
2017-10-16T22:01:50.720Z,18.14
2017-10-16T22:02:31.314Z,18.11
2017-10-16T22:03:11.877Z,18.05
2017-10-16T22:03:52.484Z,18.05
2017-10-16T22:04:32.956Z,18.05
2017-10-16T22:05:13.487Z,17.97
2017-10-16T22:05:54.156Z,17.89
2017-10-16T22:06:35.006Z,18.03
2017-10-16T22:07:15.312Z,17.99
2017-10-16T22:07:56.004Z,18.07
2017-10-16T22:08:36.656Z,17.95
2017-10-16T22:09:17.276Z,18.03
2017-10-16T22:09:58.042Z,17.99
2017-10-16T22:10:38.581Z,17.93
2017-10-16T22:11:19.151Z,17.96
2017-10-16T22:11:59.683Z,17.96
2017-10-16T22:12:40.451Z,17.95
2017-10-16T22:13:20.973Z,17.99
2017-10-16T22:14:01.568Z,18.03
2017-10-16T22:14:42.112Z,17.93
2017-10-16T22:15:22.658Z,17.92
2017-10-16T22:16:03.225Z,17.99
2017-10-16T22:16:43.801Z,17.96
2017-10-16T22:17:24.380Z,17.99
2017-10-16T22:18:04.916Z,17.97
2017-10-16T22:18:45.547Z,17.97
2017-10-16T22:19:26.078Z,17.99
2017-10-16T22:20:06.840Z,17.97
2017-10-16T22:20:47.521Z,17.95
2017-10-16T22:21:28.138Z,18
2017-10-16T22:22:08.712Z,17.97
2017-10-16T22:22:49.321Z,17.96
2017-10-16T22:23:30.104Z,17.99
2017-10-16T22:24:10.505Z,17.93
2017-10-16T22:24:51.106Z,18.02
2017-10-16T22:25:31.575Z,17.99
2017-10-16T22:26:12.170Z,18.02
2017-10-16T22:26:52.762Z,17.9
2017-10-16T22:27:33.295Z,17.87
2017-10-16T22:28:13.909Z,17.96
2017-10-16T22:28:54.460Z,17.9
2017-10-16T22:29:35.032Z,17.87
2017-10-16T22:30:15.713Z,17.95
2017-10-16T22:31:02.765Z,17.87
2017-10-16T22:31:43.292Z,17.95
2017-10-16T22:32:23.920Z,17.9
2017-10-16T22:33:04.677Z,17.84
2017-10-16T22:33:45.109Z,17.71
2017-10-16T22:34:25.624Z,17.75
2017-10-16T22:35:06.258Z,17.77
2017-10-16T22:35:46.799Z,17.77
2017-10-16T22:36:27.312Z,17.84
2017-10-16T22:37:07.883Z,17.9
2017-10-16T22:37:49.237Z,17.84
2017-10-16T22:38:29.194Z,17.87
2017-10-16T22:39:09.776Z,17.89
2017-10-16T22:39:50.359Z,17.82
2017-10-16T22:40:30.894Z,17.93
2017-10-16T22:41:11.500Z,17.77
2017-10-16T22:41:52.113Z,17.78
2017-10-16T22:42:32.639Z,17.78
2017-10-16T22:43:13.188Z,17.78
2017-10-16T22:43:53.703Z,17.79
2017-10-16T22:44:34.285Z,17.79
2017-10-16T22:45:14.819Z,17.79
2017-10-16T22:45:55.451Z,17.72
2017-10-16T22:46:36.006Z,17.75
2017-10-16T22:47:16.560Z,17.82
2017-10-16T22:47:57.050Z,17.75
2017-10-16T22:48:37.648Z,17.71
2017-10-16T22:49:18.180Z,17.7
2017-10-16T22:49:58.763Z,17.77
2017-10-16T22:50:39.313Z,17.64
2017-10-16T22:51:19.845Z,17.68
2017-10-16T22:52:00.749Z,17.74
2017-10-16T22:52:41.679Z,17.72
2017-10-16T22:53:21.970Z,17.75
2017-10-16T22:54:02.528Z,17.72
2017-10-16T22:54:43.054Z,17.74
2017-10-16T22:55:23.557Z,17.79
2017-10-16T22:56:04.150Z,17.77
2017-10-16T22:56:44.638Z,17.77
2017-10-16T22:57:25.214Z,17.74
2017-10-16T22:58:05.790Z,17.71
2017-10-16T22:58:46.358Z,17.72
2017-10-16T22:59:26.914Z,17.77
2017-10-16T23:00:07.544Z,17.75
2017-10-16T23:00:48.176Z,17.75
2017-10-16T23:01:29.139Z,17.75
2017-10-16T23:02:09.652Z,17.79
2017-10-16T23:02:50.193Z,17.71
2017-10-16T23:03:30.755Z,17.78
2017-10-16T23:04:11.524Z,17.75
2017-10-16T23:04:52.125Z,17.72
2017-10-16T23:05:32.677Z,17.74
2017-10-16T23:06:13.356Z,17.68
2017-10-16T23:06:54.061Z,17.72
2017-10-16T23:07:34.535Z,17.68
2017-10-16T23:08:15.065Z,17.7
2017-10-16T23:08:55.619Z,17.58
2017-10-16T23:09:36.208Z,17.62
2017-10-16T23:10:17.745Z,17.68
2017-10-16T23:10:57.990Z,17.71
2017-10-16T23:11:38.739Z,17.72
2017-10-16T23:12:19.275Z,17.68
2017-10-16T23:13:01.131Z,17.63
2017-10-16T23:13:41.698Z,17.71
2017-10-16T23:14:22.268Z,17.72
2017-10-16T23:15:02.855Z,17.68
2017-10-16T23:15:43.540Z,17.59
2017-10-16T23:16:24.073Z,17.54
2017-10-16T23:17:04.734Z,17.52
2017-10-16T23:17:45.295Z,17.52
2017-10-16T23:18:25.809Z,17.55
2017-10-16T23:19:06.343Z,17.59
2017-10-16T23:19:46.889Z,17.54
2017-10-16T23:20:27.451Z,17.62
2017-10-16T23:21:08.151Z,17.56
2017-10-16T23:21:48.655Z,17.56
2017-10-16T23:22:29.287Z,17.59
2017-10-16T23:23:10.296Z,17.55
2017-10-16T23:23:50.840Z,17.58
2017-10-16T23:24:31.399Z,17.54
2017-10-16T23:25:12.014Z,17.55
2017-10-16T23:25:53.387Z,17.54
2017-10-16T23:26:33.905Z,17.55
2017-10-16T23:27:14.451Z,17.56
2017-10-16T23:27:55.032Z,17.55
2017-10-16T23:28:35.765Z,17.62
2017-10-16T23:29:16.321Z,17.49
2017-10-16T23:29:56.841Z,17.51
2017-10-16T23:30:37.445Z,17.43
2017-10-16T23:31:18.041Z,17.49
2017-10-16T23:31:58.565Z,17.52
2017-10-16T23:32:39.097Z,17.54
2017-10-16T23:33:19.615Z,17.59
2017-10-16T23:34:00.211Z,17.43
2017-10-16T23:34:40.750Z,17.48
2017-10-16T23:35:21.291Z,17.46
2017-10-16T23:36:01.851Z,17.52
2017-10-16T23:36:42.451Z,17.44
2017-10-16T23:37:22.961Z,17.49
2017-10-16T23:38:03.523Z,17.51
2017-10-16T23:38:44.190Z,17.44
2017-10-16T23:39:24.737Z,17.37
2017-10-16T23:40:05.246Z,17.44
2017-10-16T23:40:45.817Z,17.49
2017-10-16T23:41:26.363Z,17.51
2017-10-16T23:42:06.937Z,17.52
2017-10-16T23:42:47.514Z,17.51
2017-10-16T23:43:28.017Z,17.44
2017-10-16T23:44:08.585Z,17.49
2017-10-16T23:44:49.144Z,17.38
2017-10-16T23:45:29.676Z,17.43
2017-10-16T23:46:10.256Z,17.4
2017-10-16T23:46:50.924Z,17.48
2017-10-16T23:47:31.346Z,17.43
2017-10-16T23:48:11.931Z,17.43
2017-10-16T23:48:52.457Z,17.41
2017-10-16T23:49:32.996Z,17.49
2017-10-16T23:50:13.582Z,17.46
2017-10-16T23:50:54.161Z,17.43
2017-10-16T23:51:34.907Z,17.44
2017-10-16T23:52:15.373Z,17.41
2017-10-16T23:52:55.941Z,17.43
2017-10-16T23:53:36.511Z,17.46
2017-10-16T23:54:17.053Z,17.43
2017-10-16T23:54:57.611Z,17.43
2017-10-16T23:55:38.189Z,17.41
2017-10-16T23:56:18.714Z,17.46
2017-10-16T23:56:59.237Z,17.44
2017-10-16T23:57:39.912Z,17.49
2017-10-16T23:58:20.501Z,17.48
2017-10-16T23:59:01.046Z,17.52
2017-10-16T23:59:41.600Z,17.46
